sensor_id;sensor_type;location;lat;lon;timestamp;P1;durP1;ratioP1;P2;durP2;ratioP2
51122;SDS011;37162;41.724;13.346;2022-10-17T00:01:49;3.40;;;3.10;;
51122;SDS011;37162;41.724;13.346;2022-10-17T00:04:14;4.72;;;3.65;;
51122;SDS011;37162;41.724;13.346;2022-10-17T00:06:40;3.85;;;2.90;;
51122;SDS011;37162;41.724;13.346;2022-10-17T00:09:05;3.80;;;3.20;;
51122;SDS011;37162;41.724;13.346;2022-10-17T00:11:31;4.68;;;2.60;;
51122;SDS011;37162;41.724;13.346;2022-10-17T00:13:57;3.45;;;2.88;;
51122;SDS011;37162;41.724;13.346;2022-10-17T00:16:23;5.03;;;2.70;;
51122;SDS011;37162;41.724;13.346;2022-10-17T00:18:50;3.55;;;2.80;;
51122;SDS011;37162;41.724;13.346;2022-10-17T00:21:17;4.65;;;2.88;;
51122;SDS011;37162;41.724;13.346;2022-10-17T00:23:44;2.97;;;2.53;;
51122;SDS011;37162;41.724;13.346;2022-10-17T00:26:10;4.10;;;2.70;;
51122;SDS011;37162;41.724;13.346;2022-10-17T00:28:35;2.20;;;2.00;;
51122;SDS011;37162;41.724;13.346;2022-10-17T00:31:02;2.83;;;2.50;;
51122;SDS011;37162;41.724;13.346;2022-10-17T00:33:29;3.13;;;2.20;;
51122;SDS011;37162;41.724;13.346;2022-10-17T00:36:04;3.65;;;2.80;;
51122;SDS011;37162;41.724;13.346;2022-10-17T00:38:32;2.72;;;2.45;;
51122;SDS011;37162;41.724;13.346;2022-10-17T00:40:57;3.90;;;2.47;;
51122;SDS011;37162;41.724;13.346;2022-10-17T00:43:23;2.50;;;2.30;;
51122;SDS011;37162;41.724;13.346;2022-10-17T00:45:48;3.35;;;2.50;;
51122;SDS011;37162;41.724;13.346;2022-10-17T00:48:14;2.45;;;2.10;;
51122;SDS011;37162;41.724;13.346;2022-10-17T00:50:42;4.25;;;2.88;;
51122;SDS011;37162;41.724;13.346;2022-10-17T00:53:10;3.03;;;2.40;;
51122;SDS011;37162;41.724;13.346;2022-10-17T00:55:38;2.53;;;2.20;;
51122;SDS011;37162;41.724;13.346;2022-10-17T00:58:08;2.97;;;2.25;;
51122;SDS011;37162;41.724;13.346;2022-10-17T01:00:34;3.83;;;2.70;;
51122;SDS011;37162;41.724;13.346;2022-10-17T01:03:00;3.05;;;2.17;;
51122;SDS011;37162;41.724;13.346;2022-10-17T01:05:26;3.42;;;2.80;;
51122;SDS011;37162;41.724;13.346;2022-10-17T01:07:53;2.55;;;2.00;;
51122;SDS011;37162;41.724;13.346;2022-10-17T01:10:18;2.90;;;2.03;;
51122;SDS011;37162;41.724;13.346;2022-10-17T01:15:22;2.83;;;2.35;;
51122;SDS011;37162;41.724;13.346;2022-10-17T01:18:10;2.58;;;2.20;;
51122;SDS011;37162;41.724;13.346;2022-10-17T01:26:24;2.35;;;2.15;;
51122;SDS011;37162;41.724;13.346;2022-10-17T01:29:38;4.72;;;2.60;;
51122;SDS011;37162;41.724;13.346;2022-10-17T01:34:21;3.95;;;2.78;;
51122;SDS011;37162;41.724;13.346;2022-10-17T01:37:12;3.03;;;2.50;;
51122;SDS011;37162;41.724;13.346;2022-10-17T01:39:49;4.88;;;2.60;;
51122;SDS011;37162;41.724;13.346;2022-10-17T01:42:38;4.88;;;2.88;;
51122;SDS011;37162;41.724;13.346;2022-10-17T01:47:53;2.75;;;2.42;;
51122;SDS011;37162;41.724;13.346;2022-10-17T01:50:24;3.10;;;2.35;;
51122;SDS011;37162;41.724;13.346;2022-10-17T01:53:05;2.70;;;2.50;;
51122;SDS011;37162;41.724;13.346;2022-10-17T01:55:38;2.70;;;2.50;;
51122;SDS011;37162;41.724;13.346;2022-10-17T01:58:11;2.72;;;2.42;;
51122;SDS011;37162;41.724;13.346;2022-10-17T02:00:41;3.17;;;2.67;;
51122;SDS011;37162;41.724;13.346;2022-10-17T02:03:11;3.25;;;2.63;;
51122;SDS011;37162;41.724;13.346;2022-10-17T02:05:40;2.67;;;2.47;;
51122;SDS011;37162;41.724;13.346;2022-10-17T02:08:08;3.50;;;2.65;;
51122;SDS011;37162;41.724;13.346;2022-10-17T02:16:36;3.40;;;3.00;;
51122;SDS011;37162;41.724;13.346;2022-10-17T02:26:47;3.13;;;2.55;;
51122;SDS011;37162;41.724;13.346;2022-10-17T02:30:05;3.03;;;2.50;;
51122;SDS011;37162;41.724;13.346;2022-10-17T02:32:42;6.07;;;2.90;;
51122;SDS011;37162;41.724;13.346;2022-10-17T02:35:09;4.35;;;3.05;;
51122;SDS011;37162;41.724;13.346;2022-10-17T02:37:39;3.03;;;2.53;;
51122;SDS011;37162;41.724;13.346;2022-10-17T02:40:07;2.55;;;2.35;;
51122;SDS011;37162;41.724;13.346;2022-10-17T02:42:35;2.80;;;2.50;;
51122;SDS011;37162;41.724;13.346;2022-10-17T02:45:02;3.05;;;2.75;;
51122;SDS011;37162;41.724;13.346;2022-10-17T02:47:35;4.80;;;2.85;;
51122;SDS011;37162;41.724;13.346;2022-10-17T02:50:08;3.65;;;2.60;;
51122;SDS011;37162;41.724;13.346;2022-10-17T02:55:32;2.72;;;2.33;;
51122;SDS011;37162;41.724;13.346;2022-10-17T02:58:04;3.70;;;3.00;;
51122;SDS011;37162;41.724;13.346;2022-10-17T03:00:32;3.25;;;2.65;;
51122;SDS011;37162;41.724;13.346;2022-10-17T03:02:59;2.75;;;2.50;;
51122;SDS011;37162;41.724;13.346;2022-10-17T03:05:25;4.05;;;2.28;;
51122;SDS011;37162;41.724;13.346;2022-10-17T03:07:52;3.95;;;2.38;;
51122;SDS011;37162;41.724;13.346;2022-10-17T03:10:19;4.25;;;2.30;;
51122;SDS011;37162;41.724;13.346;2022-10-17T03:12:44;2.72;;;2.53;;
51122;SDS011;37162;41.724;13.346;2022-10-17T03:15:10;2.60;;;2.15;;
51122;SDS011;37162;41.724;13.346;2022-10-17T03:17:36;3.78;;;2.78;;
51122;SDS011;37162;41.724;13.346;2022-10-17T03:20:02;3.17;;;2.35;;
51122;SDS011;37162;41.724;13.346;2022-10-17T03:22:28;2.80;;;2.30;;
51122;SDS011;37162;41.724;13.346;2022-10-17T03:24:54;4.28;;;2.30;;
51122;SDS011;37162;41.724;13.346;2022-10-17T03:27:19;3.17;;;2.17;;
51122;SDS011;37162;41.724;13.346;2022-10-17T03:29:44;4.90;;;2.38;;
51122;SDS011;37162;41.724;13.346;2022-10-17T03:32:10;3.13;;;2.38;;
51122;SDS011;37162;41.724;13.346;2022-10-17T03:34:35;2.67;;;2.15;;
51122;SDS011;37162;41.724;13.346;2022-10-17T03:37:01;2.65;;;2.30;;
51122;SDS011;37162;41.724;13.346;2022-10-17T03:39:26;3.63;;;2.35;;
51122;SDS011;37162;41.724;13.346;2022-10-17T03:41:52;3.05;;;2.15;;
51122;SDS011;37162;41.724;13.346;2022-10-17T03:44:17;2.92;;;2.63;;
51122;SDS011;37162;41.724;13.346;2022-10-17T03:46:42;2.42;;;2.00;;
51122;SDS011;37162;41.724;13.346;2022-10-17T03:49:08;2.90;;;2.30;;
51122;SDS011;37162;41.724;13.346;2022-10-17T03:51:34;2.80;;;2.08;;
51122;SDS011;37162;41.724;13.346;2022-10-17T03:54:00;2.90;;;2.03;;
51122;SDS011;37162;41.724;13.346;2022-10-17T03:56:26;3.10;;;2.38;;
51122;SDS011;37162;41.724;13.346;2022-10-17T03:58:52;3.22;;;2.90;;
51122;SDS011;37162;41.724;13.346;2022-10-17T04:01:19;3.45;;;2.20;;
51122;SDS011;37162;41.724;13.346;2022-10-17T04:03:51;2.55;;;2.22;;
51122;SDS011;37162;41.724;13.346;2022-10-17T04:06:18;2.47;;;2.25;;
51122;SDS011;37162;41.724;13.346;2022-10-17T04:08:45;2.97;;;2.45;;
51122;SDS011;37162;41.724;13.346;2022-10-17T04:11:13;3.17;;;2.20;;
51122;SDS011;37162;41.724;13.346;2022-10-17T04:13:40;3.13;;;2.30;;
51122;SDS011;37162;41.724;13.346;2022-10-17T04:16:07;2.45;;;2.17;;
51122;SDS011;37162;41.724;13.346;2022-10-17T04:18:35;2.95;;;2.47;;
51122;SDS011;37162;41.724;13.346;2022-10-17T04:21:01;3.80;;;2.00;;
51122;SDS011;37162;41.724;13.346;2022-10-17T04:23:28;3.30;;;2.17;;
51122;SDS011;37162;41.724;13.346;2022-10-17T04:25:56;2.53;;;2.30;;
51122;SDS011;37162;41.724;13.346;2022-10-17T04:28:25;3.15;;;2.33;;
51122;SDS011;37162;41.724;13.346;2022-10-17T04:31:04;2.70;;;2.22;;
51122;SDS011;37162;41.724;13.346;2022-10-17T04:33:32;3.25;;;2.40;;
51122;SDS011;37162;41.724;13.346;2022-10-17T04:36:05;2.33;;;2.08;;
51122;SDS011;37162;41.724;13.346;2022-10-17T04:38:41;3.35;;;2.60;;
51122;SDS011;37162;41.724;13.346;2022-10-17T04:41:07;3.15;;;2.63;;
51122;SDS011;37162;41.724;13.346;2022-10-17T04:43:36;3.13;;;2.30;;
51122;SDS011;37162;41.724;13.346;2022-10-17T04:46:04;3.47;;;2.30;;
51122;SDS011;37162;41.724;13.346;2022-10-17T04:48:31;2.78;;;2.05;;
51122;SDS011;37162;41.724;13.346;2022-10-17T04:50:57;3.72;;;2.33;;
51122;SDS011;37162;41.724;13.346;2022-10-17T04:53:24;2.60;;;2.13;;
51122;SDS011;37162;41.724;13.346;2022-10-17T04:55:51;3.17;;;2.55;;
51122;SDS011;37162;41.724;13.346;2022-10-17T04:58:17;4.63;;;2.55;;
51122;SDS011;37162;41.724;13.346;2022-10-17T05:00:43;3.38;;;2.63;;
51122;SDS011;37162;41.724;13.346;2022-10-17T05:03:08;3.17;;;2.67;;
51122;SDS011;37162;41.724;13.346;2022-10-17T05:05:36;2.47;;;2.17;;
51122;SDS011;37162;41.724;13.346;2022-10-17T05:08:02;3.00;;;2.15;;
51122;SDS011;37162;41.724;13.346;2022-10-17T05:10:28;2.75;;;2.35;;
51122;SDS011;37162;41.724;13.346;2022-10-17T05:12:54;3.22;;;2.25;;
51122;SDS011;37162;41.724;13.346;2022-10-17T05:15:19;2.83;;;2.13;;
51122;SDS011;37162;41.724;13.346;2022-10-17T05:17:44;3.13;;;1.95;;
51122;SDS011;37162;41.724;13.346;2022-10-17T05:20:10;3.55;;;2.28;;
51122;SDS011;37162;41.724;13.346;2022-10-17T05:22:36;2.45;;;2.03;;
51122;SDS011;37162;41.724;13.346;2022-10-17T05:25:01;3.33;;;2.35;;
51122;SDS011;37162;41.724;13.346;2022-10-17T05:27:26;3.22;;;2.40;;
51122;SDS011;37162;41.724;13.346;2022-10-17T05:29:52;2.75;;;2.10;;
51122;SDS011;37162;41.724;13.346;2022-10-17T05:32:17;3.35;;;2.28;;
51122;SDS011;37162;41.724;13.346;2022-10-17T05:34:43;3.28;;;2.47;;
51122;SDS011;37162;41.724;13.346;2022-10-17T05:37:08;2.50;;;2.25;;
51122;SDS011;37162;41.724;13.346;2022-10-17T05:39:33;2.50;;;2.08;;
51122;SDS011;37162;41.724;13.346;2022-10-17T05:41:59;2.53;;;2.20;;
51122;SDS011;37162;41.724;13.346;2022-10-17T05:44:24;3.33;;;2.22;;
51122;SDS011;37162;41.724;13.346;2022-10-17T05:46:50;3.33;;;2.47;;
51122;SDS011;37162;41.724;13.346;2022-10-17T05:49:15;3.08;;;2.35;;
51122;SDS011;37162;41.724;13.346;2022-10-17T05:51:41;20.63;;;4.03;;
51122;SDS011;37162;41.724;13.346;2022-10-17T05:54:07;11.50;;;3.20;;
51122;SDS011;37162;41.724;13.346;2022-10-17T05:56:33;7.13;;;2.83;;
51122;SDS011;37162;41.724;13.346;2022-10-17T05:58:58;6.82;;;2.70;;
51122;SDS011;37162;41.724;13.346;2022-10-17T06:01:24;7.72;;;2.50;;
51122;SDS011;37162;41.724;13.346;2022-10-17T06:03:50;6.25;;;2.58;;
51122;SDS011;37162;41.724;13.346;2022-10-17T06:06:16;7.70;;;2.55;;
51122;SDS011;37162;41.724;13.346;2022-10-17T06:08:42;3.95;;;2.20;;
51122;SDS011;37162;41.724;13.346;2022-10-17T06:11:07;3.72;;;2.72;;
51122;SDS011;37162;41.724;13.346;2022-10-17T06:13:33;3.42;;;2.38;;
51122;SDS011;37162;41.724;13.346;2022-10-17T06:15:58;3.03;;;2.50;;
51122;SDS011;37162;41.724;13.346;2022-10-17T06:18:24;3.00;;;2.38;;
51122;SDS011;37162;41.724;13.346;2022-10-17T06:20:50;3.17;;;2.17;;
51122;SDS011;37162;41.724;13.346;2022-10-17T06:23:16;4.05;;;2.63;;
51122;SDS011;37162;41.724;13.346;2022-10-17T06:25:41;2.67;;;2.25;;
51122;SDS011;37162;41.724;13.346;2022-10-17T06:28:06;4.25;;;2.72;;
51122;SDS011;37162;41.724;13.346;2022-10-17T06:30:32;3.95;;;2.90;;
51122;SDS011;37162;41.724;13.346;2022-10-17T06:32:57;3.58;;;2.75;;
51122;SDS011;37162;41.724;13.346;2022-10-17T06:35:23;4.13;;;3.10;;
51122;SDS011;37162;41.724;13.346;2022-10-17T06:37:48;5.40;;;2.50;;
51122;SDS011;37162;41.724;13.346;2022-10-17T06:40:14;5.53;;;3.30;;
51122;SDS011;37162;41.724;13.346;2022-10-17T06:42:41;5.95;;;3.55;;
51122;SDS011;37162;41.724;13.346;2022-10-17T06:45:06;6.88;;;3.83;;
51122;SDS011;37162;41.724;13.346;2022-10-17T06:47:33;5.55;;;3.75;;
51122;SDS011;37162;41.724;13.346;2022-10-17T06:49:59;6.55;;;4.07;;
51122;SDS011;37162;41.724;13.346;2022-10-17T06:52:25;6.55;;;3.50;;
51122;SDS011;37162;41.724;13.346;2022-10-17T06:54:50;3.92;;;3.47;;
51122;SDS011;37162;41.724;13.346;2022-10-17T06:57:16;4.78;;;3.35;;
51122;SDS011;37162;41.724;13.346;2022-10-17T06:59:41;4.82;;;3.25;;
51122;SDS011;37162;41.724;13.346;2022-10-17T07:02:08;9.63;;;3.67;;
51122;SDS011;37162;41.724;13.346;2022-10-17T07:04:34;4.68;;;2.67;;
51122;SDS011;37162;41.724;13.346;2022-10-17T07:06:59;6.53;;;2.80;;
51122;SDS011;37162;41.724;13.346;2022-10-17T07:09:27;4.68;;;3.13;;
51122;SDS011;37162;41.724;13.346;2022-10-17T07:11:53;3.60;;;2.58;;
51122;SDS011;37162;41.724;13.346;2022-10-17T07:14:18;3.42;;;2.58;;
51122;SDS011;37162;41.724;13.346;2022-10-17T07:16:44;3.28;;;2.58;;
51122;SDS011;37162;41.724;13.346;2022-10-17T07:19:09;6.82;;;2.60;;
51122;SDS011;37162;41.724;13.346;2022-10-17T07:21:35;5.70;;;3.03;;
51122;SDS011;37162;41.724;13.346;2022-10-17T07:24:00;3.40;;;2.50;;
51122;SDS011;37162;41.724;13.346;2022-10-17T07:26:25;6.47;;;2.80;;
51122;SDS011;37162;41.724;13.346;2022-10-17T07:28:52;4.18;;;3.03;;
51122;SDS011;37162;41.724;13.346;2022-10-17T07:31:19;3.40;;;2.65;;
51122;SDS011;37162;41.724;13.346;2022-10-17T07:33:46;3.75;;;2.78;;
51122;SDS011;37162;41.724;13.346;2022-10-17T07:36:11;4.10;;;2.80;;
51122;SDS011;37162;41.724;13.346;2022-10-17T07:38:37;4.38;;;2.90;;
51122;SDS011;37162;41.724;13.346;2022-10-17T07:41:04;6.93;;;2.75;;
51122;SDS011;37162;41.724;13.346;2022-10-17T07:43:31;3.92;;;2.88;;
51122;SDS011;37162;41.724;13.346;2022-10-17T07:45:57;5.90;;;3.17;;
51122;SDS011;37162;41.724;13.346;2022-10-17T07:48:23;3.63;;;2.75;;
51122;SDS011;37162;41.724;13.346;2022-10-17T07:50:48;2.92;;;2.40;;
51122;SDS011;37162;41.724;13.346;2022-10-17T07:53:14;3.55;;;2.95;;
51122;SDS011;37162;41.724;13.346;2022-10-17T07:55:40;2.90;;;2.60;;
51122;SDS011;37162;41.724;13.346;2022-10-17T07:58:06;3.30;;;2.58;;
51122;SDS011;37162;41.724;13.346;2022-10-17T08:00:33;3.33;;;2.60;;
51122;SDS011;37162;41.724;13.346;2022-10-17T08:02:59;4.28;;;2.78;;
51122;SDS011;37162;41.724;13.346;2022-10-17T08:05:24;4.05;;;2.45;;
51122;SDS011;37162;41.724;13.346;2022-10-17T08:07:50;4.07;;;2.90;;
51122;SDS011;37162;41.724;13.346;2022-10-17T08:10:15;2.65;;;2.15;;
51122;SDS011;37162;41.724;13.346;2022-10-17T08:12:41;3.63;;;2.47;;
51122;SDS011;37162;41.724;13.346;2022-10-17T08:15:07;3.75;;;2.42;;
51122;SDS011;37162;41.724;13.346;2022-10-17T08:17:33;3.70;;;2.42;;
51122;SDS011;37162;41.724;13.346;2022-10-17T08:20:00;3.53;;;2.50;;
51122;SDS011;37162;41.724;13.346;2022-10-17T08:22:25;3.38;;;2.90;;
51122;SDS011;37162;41.724;13.346;2022-10-17T08:24:51;3.35;;;2.60;;
51122;SDS011;37162;41.724;13.346;2022-10-17T08:27:17;3.40;;;2.65;;
51122;SDS011;37162;41.724;13.346;2022-10-17T08:29:48;3.15;;;2.47;;
51122;SDS011;37162;41.724;13.346;2022-10-17T08:32:17;3.15;;;2.13;;
51122;SDS011;37162;41.724;13.346;2022-10-17T08:34:43;6.35;;;2.40;;
51122;SDS011;37162;41.724;13.346;2022-10-17T08:37:08;4.28;;;2.85;;
51122;SDS011;37162;41.724;13.346;2022-10-17T08:39:34;5.15;;;2.65;;
51122;SDS011;37162;41.724;13.346;2022-10-17T08:42:11;2.88;;;2.38;;
51122;SDS011;37162;41.724;13.346;2022-10-17T08:47:45;3.97;;;2.50;;
51122;SDS011;37162;41.724;13.346;2022-10-17T08:51:15;5.93;;;2.70;;
51122;SDS011;37162;41.724;13.346;2022-10-17T08:56:22;6.70;;;2.70;;
51122;SDS011;37162;41.724;13.346;2022-10-17T08:58:49;3.90;;;2.63;;
51122;SDS011;37162;41.724;13.346;2022-10-17T09:01:31;6.25;;;2.72;;
51122;SDS011;37162;41.724;13.346;2022-10-17T09:07:05;4.38;;;2.80;;
51122;SDS011;37162;41.724;13.346;2022-10-17T09:09:41;3.45;;;2.70;;
51122;SDS011;37162;41.724;13.346;2022-10-17T09:20:50;6.05;;;2.70;;
51122;SDS011;37162;41.724;13.346;2022-10-17T09:23:20;5.07;;;3.08;;
51122;SDS011;37162;41.724;13.346;2022-10-17T09:25:51;4.07;;;3.08;;
51122;SDS011;37162;41.724;13.346;2022-10-17T09:28:26;3.33;;;2.78;;
51122;SDS011;37162;41.724;13.346;2022-10-17T09:33:38;4.82;;;3.50;;
51122;SDS011;37162;41.724;13.346;2022-10-17T09:36:10;5.07;;;2.90;;
51122;SDS011;37162;41.724;13.346;2022-10-17T09:38:48;6.97;;;3.30;;
51122;SDS011;37162;41.724;13.346;2022-10-17T09:41:35;6.95;;;3.45;;
51122;SDS011;37162;41.724;13.346;2022-10-17T09:46:42;5.30;;;3.45;;
51122;SDS011;37162;41.724;13.346;2022-10-17T09:49:17;5.22;;;3.28;;
51122;SDS011;37162;41.724;13.346;2022-10-17T09:51:47;4.97;;;3.28;;
51122;SDS011;37162;41.724;13.346;2022-10-17T09:56:57;5.80;;;2.92;;
51122;SDS011;37162;41.724;13.346;2022-10-17T09:59:34;6.88;;;3.92;;
51122;SDS011;37162;41.724;13.346;2022-10-17T10:02:15;5.30;;;3.10;;
51122;SDS011;37162;41.724;13.346;2022-10-17T10:05:05;6.75;;;3.28;;
51122;SDS011;37162;41.724;13.346;2022-10-17T10:07:43;6.50;;;3.95;;
51122;SDS011;37162;41.724;13.346;2022-10-17T10:10:26;5.03;;;3.40;;
51122;SDS011;37162;41.724;13.346;2022-10-17T10:13:04;4.38;;;3.33;;
51122;SDS011;37162;41.724;13.346;2022-10-17T10:15:35;3.97;;;3.47;;
51122;SDS011;37162;41.724;13.346;2022-10-17T10:18:06;5.97;;;3.83;;
51122;SDS011;37162;41.724;13.346;2022-10-17T10:21:09;5.70;;;3.70;;
51122;SDS011;37162;41.724;13.346;2022-10-17T10:23:40;6.65;;;3.83;;
51122;SDS011;37162;41.724;13.346;2022-10-17T10:34:35;5.78;;;4.50;;
51122;SDS011;37162;41.724;13.346;2022-10-17T10:37:04;5.30;;;3.90;;
51122;SDS011;37162;41.724;13.346;2022-10-17T10:42:19;7.90;;;4.03;;
51122;SDS011;37162;41.724;13.346;2022-10-17T10:50:55;5.25;;;3.80;;
51122;SDS011;37162;41.724;13.346;2022-10-17T11:03:52;7.35;;;4.25;;
51122;SDS011;37162;41.724;13.346;2022-10-17T11:06:23;10.63;;;4.18;;
51122;SDS011;37162;41.724;13.346;2022-10-17T11:11:37;9.23;;;4.20;;
51122;SDS011;37162;41.724;13.346;2022-10-17T11:17:07;7.45;;;4.50;;
51122;SDS011;37162;41.724;13.346;2022-10-17T11:19:58;8.18;;;4.55;;
51122;SDS011;37162;41.724;13.346;2022-10-17T11:22:38;7.18;;;3.92;;
51122;SDS011;37162;41.724;13.346;2022-10-17T11:27:57;6.55;;;4.13;;
51122;SDS011;37162;41.724;13.346;2022-10-17T11:30:23;5.32;;;4.03;;
51122;SDS011;37162;41.724;13.346;2022-10-17T11:32:54;5.15;;;3.80;;
51122;SDS011;37162;41.724;13.346;2022-10-17T11:35:31;6.05;;;4.43;;
51122;SDS011;37162;41.724;13.346;2022-10-17T11:38:11;7.22;;;4.28;;
51122;SDS011;37162;41.724;13.346;2022-10-17T11:40:50;6.20;;;4.00;;
51122;SDS011;37162;41.724;13.346;2022-10-17T11:43:34;4.93;;;3.90;;
51122;SDS011;37162;41.724;13.346;2022-10-17T11:46:13;4.50;;;4.00;;
51122;SDS011;37162;41.724;13.346;2022-10-17T11:48:49;5.25;;;3.60;;
51122;SDS011;37162;41.724;13.346;2022-10-17T11:51:15;5.22;;;3.90;;
51122;SDS011;37162;41.724;13.346;2022-10-17T11:53:45;5.22;;;4.15;;
51122;SDS011;37162;41.724;13.346;2022-10-17T11:56:16;4.38;;;3.40;;
51122;SDS011;37162;41.724;13.346;2022-10-17T11:58:56;10.02;;;3.95;;
51122;SDS011;37162;41.724;13.346;2022-10-17T12:15:51;4.85;;;3.53;;
51122;SDS011;37162;41.724;13.346;2022-10-17T12:18:17;5.20;;;3.10;;
51122;SDS011;37162;41.724;13.346;2022-10-17T12:20:42;3.97;;;3.55;;
51122;SDS011;37162;41.724;13.346;2022-10-17T12:23:30;3.55;;;3.13;;
51122;SDS011;37162;41.724;13.346;2022-10-17T12:26:00;3.92;;;3.20;;
51122;SDS011;37162;41.724;13.346;2022-10-17T12:28:28;7.57;;;3.63;;
51122;SDS011;37162;41.724;13.346;2022-10-17T12:30:57;5.60;;;3.55;;
51122;SDS011;37162;41.724;13.346;2022-10-17T12:33:28;5.45;;;3.53;;
51122;SDS011;37162;41.724;13.346;2022-10-17T12:38:49;3.92;;;3.20;;
51122;SDS011;37162;41.724;13.346;2022-10-17T12:46:48;5.35;;;3.53;;
51122;SDS011;37162;41.724;13.346;2022-10-17T12:49:39;4.30;;;3.55;;
51122;SDS011;37162;41.724;13.346;2022-10-17T13:00:11;3.90;;;3.10;;
51122;SDS011;37162;41.724;13.346;2022-10-17T13:02:41;4.18;;;3.13;;
51122;SDS011;37162;41.724;13.346;2022-10-17T13:05:13;3.17;;;2.88;;
51122;SDS011;37162;41.724;13.346;2022-10-17T13:07:43;4.15;;;3.42;;
51122;SDS011;37162;41.724;13.346;2022-10-17T13:10:28;3.70;;;3.05;;
51122;SDS011;37162;41.724;13.346;2022-10-17T13:13:03;5.47;;;3.33;;
51122;SDS011;37162;41.724;13.346;2022-10-17T13:15:38;3.90;;;3.47;;
51122;SDS011;37162;41.724;13.346;2022-10-17T13:18:04;3.88;;;2.90;;
51122;SDS011;37162;41.724;13.346;2022-10-17T13:20:30;3.47;;;2.92;;
51122;SDS011;37162;41.724;13.346;2022-10-17T13:22:56;5.63;;;3.13;;
51122;SDS011;37162;41.724;13.346;2022-10-17T13:25:24;3.80;;;3.10;;
51122;SDS011;37162;41.724;13.346;2022-10-17T13:27:50;4.13;;;3.38;;
51122;SDS011;37162;41.724;13.346;2022-10-17T13:30:30;4.07;;;2.90;;
51122;SDS011;37162;41.724;13.346;2022-10-17T13:32:58;4.53;;;3.47;;
51122;SDS011;37162;41.724;13.346;2022-10-17T13:35:35;4.20;;;2.78;;
51122;SDS011;37162;41.724;13.346;2022-10-17T13:38:03;3.95;;;2.90;;
51122;SDS011;37162;41.724;13.346;2022-10-17T13:40:36;3.92;;;2.72;;
51122;SDS011;37162;41.724;13.346;2022-10-17T13:43:14;3.08;;;2.72;;
51122;SDS011;37162;41.724;13.346;2022-10-17T13:46:02;3.80;;;2.95;;
51122;SDS011;37162;41.724;13.346;2022-10-17T13:48:30;4.68;;;2.92;;
51122;SDS011;37162;41.724;13.346;2022-10-17T13:50:59;7.07;;;3.58;;
51122;SDS011;37162;41.724;13.346;2022-10-17T13:56:15;3.55;;;3.22;;
51122;SDS011;37162;41.724;13.346;2022-10-17T13:58:52;5.60;;;3.55;;
51122;SDS011;37162;41.724;13.346;2022-10-17T14:01:21;3.85;;;3.10;;
51122;SDS011;37162;41.724;13.346;2022-10-17T14:03:48;5.63;;;3.72;;
51122;SDS011;37162;41.724;13.346;2022-10-17T14:06:17;4.50;;;3.58;;
51122;SDS011;37162;41.724;13.346;2022-10-17T14:11:25;3.83;;;3.15;;
51122;SDS011;37162;41.724;13.346;2022-10-17T14:13:56;3.72;;;2.83;;
51122;SDS011;37162;41.724;13.346;2022-10-17T14:16:23;3.50;;;3.17;;
51122;SDS011;37162;41.724;13.346;2022-10-17T14:18:50;4.03;;;3.20;;
51122;SDS011;37162;41.724;13.346;2022-10-17T14:21:18;3.97;;;3.17;;
51122;SDS011;37162;41.724;13.346;2022-10-17T14:23:46;3.33;;;3.03;;
51122;SDS011;37162;41.724;13.346;2022-10-17T14:26:17;5.53;;;3.05;;
51122;SDS011;37162;41.724;13.346;2022-10-17T14:28:46;3.30;;;2.85;;
51122;SDS011;37162;41.724;13.346;2022-10-17T14:31:22;3.92;;;3.17;;
51122;SDS011;37162;41.724;13.346;2022-10-17T14:33:52;3.30;;;3.00;;
51122;SDS011;37162;41.724;13.346;2022-10-17T14:36:19;5.22;;;3.85;;
51122;SDS011;37162;41.724;13.346;2022-10-17T14:38:53;5.93;;;2.92;;
51122;SDS011;37162;41.724;13.346;2022-10-17T14:41:23;7.63;;;4.55;;
51122;SDS011;37162;41.724;13.346;2022-10-17T14:43:58;8.32;;;4.35;;
51122;SDS011;37162;41.724;13.346;2022-10-17T14:46:25;6.75;;;3.60;;
51122;SDS011;37162;41.724;13.346;2022-10-17T14:48:56;5.25;;;3.67;;
51122;SDS011;37162;41.724;13.346;2022-10-17T14:51:27;4.13;;;3.42;;
51122;SDS011;37162;41.724;13.346;2022-10-17T14:56:51;4.57;;;3.30;;
51122;SDS011;37162;41.724;13.346;2022-10-17T14:59:18;5.65;;;3.38;;
51122;SDS011;37162;41.724;13.346;2022-10-17T15:01:48;3.72;;;3.20;;
51122;SDS011;37162;41.724;13.346;2022-10-17T15:04:16;4.10;;;3.40;;
51122;SDS011;37162;41.724;13.346;2022-10-17T15:06:42;4.93;;;3.78;;
51122;SDS011;37162;41.724;13.346;2022-10-17T15:09:09;4.47;;;3.40;;
51122;SDS011;37162;41.724;13.346;2022-10-17T15:11:36;4.93;;;3.70;;
51122;SDS011;37162;41.724;13.346;2022-10-17T15:14:02;3.63;;;3.28;;
51122;SDS011;37162;41.724;13.346;2022-10-17T15:16:31;4.22;;;3.10;;
51122;SDS011;37162;41.724;13.346;2022-10-17T15:18:57;3.22;;;2.92;;
51122;SDS011;37162;41.724;13.346;2022-10-17T15:21:23;6.15;;;3.42;;
51122;SDS011;37162;41.724;13.346;2022-10-17T15:23:50;5.50;;;4.10;;
51122;SDS011;37162;41.724;13.346;2022-10-17T15:26:20;4.38;;;3.30;;
51122;SDS011;37162;41.724;13.346;2022-10-17T15:28:48;3.63;;;3.33;;
51122;SDS011;37162;41.724;13.346;2022-10-17T15:31:16;3.65;;;3.35;;
51122;SDS011;37162;41.724;13.346;2022-10-17T15:33:43;4.82;;;3.92;;
51122;SDS011;37162;41.724;13.346;2022-10-17T15:36:28;5.20;;;3.75;;
51122;SDS011;37162;41.724;13.346;2022-10-17T15:38:58;5.88;;;3.42;;
51122;SDS011;37162;41.724;13.346;2022-10-17T15:41:27;4.57;;;3.60;;
51122;SDS011;37162;41.724;13.346;2022-10-17T15:43:54;4.88;;;3.70;;
51122;SDS011;37162;41.724;13.346;2022-10-17T15:46:22;4.72;;;3.63;;
51122;SDS011;37162;41.724;13.346;2022-10-17T15:48:50;5.60;;;4.10;;
51122;SDS011;37162;41.724;13.346;2022-10-17T15:51:16;5.07;;;3.95;;
51122;SDS011;37162;41.724;13.346;2022-10-17T15:53:42;6.88;;;4.90;;
51122;SDS011;37162;41.724;13.346;2022-10-17T15:56:10;4.65;;;3.92;;
51122;SDS011;37162;41.724;13.346;2022-10-17T15:58:45;5.78;;;4.28;;
51122;SDS011;37162;41.724;13.346;2022-10-17T16:01:15;4.25;;;3.80;;
51122;SDS011;37162;41.724;13.346;2022-10-17T16:03:45;6.57;;;3.88;;
51122;SDS011;37162;41.724;13.346;2022-10-17T16:06:12;4.85;;;3.72;;
51122;SDS011;37162;41.724;13.346;2022-10-17T16:08:38;5.28;;;4.00;;
51122;SDS011;37162;41.724;13.346;2022-10-17T16:11:03;5.03;;;3.75;;
51122;SDS011;37162;41.724;13.346;2022-10-17T16:13:29;5.40;;;3.70;;
51122;SDS011;37162;41.724;13.346;2022-10-17T16:15:54;4.53;;;3.47;;
51122;SDS011;37162;41.724;13.346;2022-10-17T16:18:20;5.43;;;4.07;;
51122;SDS011;37162;41.724;13.346;2022-10-17T16:20:45;4.38;;;3.50;;
51122;SDS011;37162;41.724;13.346;2022-10-17T16:23:11;4.28;;;3.70;;
51122;SDS011;37162;41.724;13.346;2022-10-17T16:25:38;4.43;;;3.40;;
51122;SDS011;37162;41.724;13.346;2022-10-17T16:28:04;4.93;;;3.72;;
51122;SDS011;37162;41.724;13.346;2022-10-17T16:30:32;4.22;;;3.83;;
51122;SDS011;37162;41.724;13.346;2022-10-17T16:33:01;4.80;;;3.35;;
51122;SDS011;37162;41.724;13.346;2022-10-17T16:35:28;3.60;;;3.25;;
51122;SDS011;37162;41.724;13.346;2022-10-17T16:37:54;4.88;;;3.65;;
51122;SDS011;37162;41.724;13.346;2022-10-17T16:40:21;4.47;;;3.30;;
51122;SDS011;37162;41.724;13.346;2022-10-17T16:42:47;5.50;;;4.00;;
51122;SDS011;37162;41.724;13.346;2022-10-17T16:45:19;3.72;;;3.17;;
51122;SDS011;37162;41.724;13.346;2022-10-17T16:47:46;4.78;;;3.50;;
51122;SDS011;37162;41.724;13.346;2022-10-17T16:50:12;6.35;;;4.03;;
51122;SDS011;37162;41.724;13.346;2022-10-17T16:52:38;6.85;;;3.72;;
51122;SDS011;37162;41.724;13.346;2022-10-17T16:55:03;6.38;;;3.78;;
51122;SDS011;37162;41.724;13.346;2022-10-17T16:57:29;6.63;;;4.97;;